Home > Products > Valid Products > TAF

000
FTUS44 KBRO 060520
TAFHRL
TAF
KHRL 060520Z 0606/0706 20006KT P6SM SKC
      TEMPO 0610/0613 5SM BR
     FM061500 16009KT P6SM SCT250=



000
FTUS44 KBRO 060520
TAFMFE
TAF
KMFE 060520Z 0606/0706 13006KT P6SM SKC
     FM061500 16009KT P6SM SCT250=



000
FTUS44 KBRO 060520
TAFBRO
TAF
KBRO 060520Z 0606/0706 21004KT P6SM SKC
      TEMPO 0610/0613 5SM BR
     FM061500 18009KT P6SM SCT250=



000
FTUS44 KBRO 052335
TAFBRO
TAF
KBRO 052335Z 0600/0624 13010KT P6SM FEW250
     FM060200 VRB05KT P6SM BKN250
      TEMPO 0610/0613 5SM BR
     FM061500 15009KT P6SM SCT250=



000
FTUS44 KBRO 052335
TAFHRL
TAF
KHRL 052335Z 0600/0624 13010KT P6SM FEW250
     FM060200 VRB05KT P6SM BKN250
      TEMPO 0610/0613 5SM BR
     FM061500 15009KT P6SM SCT250=



000
FTUS44 KBRO 052335
TAFMFE
TAF
KMFE 052335Z 0600/0624 15010KT P6SM FEW250
     FM060200 VRB05KT P6SM BKN250
     FM061500 15009KT P6SM SCT250=



000
FTUS44 KBRO 052335
TAFHRL
TAF
KHRL 052335Z 0600/0624 13010KT P6SM FEW250
     FM060200 VRB05KT P6SM BKN250
      TEMPO 0610/0613 5SM BR
     FM061500 15009KT P6SM SCT250=



000
FTUS44 KBRO 052335
TAFBRO
TAF
KBRO 052335Z 0600/0624 13010KT P6SM FEW250
     FM060200 VRB05KT P6SM BKN250
      TEMPO 0610/0613 5SM BR
     FM061500 15009KT P6SM SCT250=



000
FTUS44 KBRO 052335
TAFMFE
TAF
KMFE 052335Z 0600/0624 15010KT P6SM FEW250
     FM060200 VRB05KT P6SM BKN250
     FM061500 15009KT P6SM SCT250=



000
FTUS44 KBRO 051724
TAFHRL
TAF
KHRL 051724Z 0518/0618 23008KT P6SM FEW250
     FM060200 VRB05KT P6SM BKN250
      TEMPO 0610/0613 5SM BR=



000
FTUS44 KBRO 051724
TAFMFE
TAF
KMFE 051724Z 0518/0618 22008KT P6SM FEW250
     FM060200 VRB05KT P6SM BKN250=



000
FTUS44 KBRO 051724
TAFBRO
TAF
KBRO 051724Z 0518/0618 23008KT P6SM FEW250
     FM060200 VRB05KT P6SM BKN250
      TEMPO 0610/0613 5SM BR=



000
FTUS44 KBRO 051120
TAFMFE
TAF
KMFE 051120Z 0512/0612 15006KT P6SM SKC
     FM051500 19008KT P6SM SKC=



000
FTUS44 KBRO 051120
TAFHRL
TAF
KHRL 051120Z 0512/0612 VRB05KT P6SM SKC
     FM051500 23010KT P6SM SKC
     FM060200 14005KT P6SM SKC=



000
FTUS44 KBRO 051120
TAFMFE
TAF
KMFE 051120Z 0512/0612 15006KT P6SM SKC
     FM051500 19008KT P6SM SKC=



000
FTUS44 KBRO 051120
TAFHRL
TAF
KHRL 051120Z 0512/0612 VRB05KT P6SM SKC
     FM051500 23010KT P6SM SKC
     FM060200 14005KT P6SM SKC=



000
FTUS44 KBRO 051120
TAFBRO
TAF
KBRO 051120Z 0512/0612 VRB05KT P6SM SKC
     FM051500 23008KT P6SM SKC
     FM060300 12005KT P6SM SKC=



000
FTUS44 KBRO 051120
TAFBRO
TAF
KBRO 051120Z 0512/0612 VRB05KT P6SM SKC
     FM051500 23008KT P6SM SKC
     FM060300 12005KT P6SM SKC=



000
FTUS44 KBRO 050531
TAFMFE
TAF
KMFE 050531Z 0506/0606 15006KT P6SM SKC
     FM051500 19008KT P6SM SKC=



000
FTUS44 KBRO 050531
TAFHRL
TAF
KHRL 050531Z 0506/0606 VRB05KT P6SM SKC
     FM051500 23010KT P6SM SKC
     FM060200 14005KT P6SM SKC=



000
FTUS44 KBRO 050531
TAFBRO
TAF
KBRO 050531Z 0506/0606 VRB05KT P6SM SKC
     FM051500 23008KT P6SM SKC
     FM060300 12005KT P6SM SKC=



000
FTUS44 KBRO 050531
TAFBRO
TAF
KBRO 050531Z 0506/0606 VRB05KT P6SM SKC
     FM051500 23008KT P6SM SKC
     FM060300 12005KT P6SM SKC=



000
FTUS44 KBRO 050531
TAFMFE
TAF
KMFE 050531Z 0506/0606 15006KT P6SM SKC
     FM051500 19008KT P6SM SKC=



000
FTUS44 KBRO 050531
TAFHRL
TAF
KHRL 050531Z 0506/0606 VRB05KT P6SM SKC
     FM051500 23010KT P6SM SKC
     FM060200 14005KT P6SM SKC=



000
FTUS44 KBRO 042336
TAFBRO
TAF
KBRO 042336Z 0500/0524 06008KT P6SM SKC
     FM050300 15005KT P6SM SKC
     FM051500 23008KT P6SM SKC=



000
FTUS44 KBRO 042336
TAFHRL
TAF
KHRL 042336Z 0500/0524 09011KT P6SM SKC
     FM050300 13005KT P6SM SKC
     FM051500 23010KT P6SM SKC=



000
FTUS44 KBRO 042336
TAFMFE
TAF
KMFE 042336Z 0500/0524 09009KT P6SM SKC
     FM050300 12006KT P6SM SKC
     FM051500 19008KT P6SM SKC=



000
FTUS44 KBRO 042001 AAA
TAFBRO
TAF AMD
KBRO 042001Z 0420/0518 04012KT P6SM SKC
     FM050300 11005KT P6SM SKC
     FM050600 15005KT P6SM SKC
     FM051500 23008KT P6SM SKC=



000
FTUS44 KBRO 041735
TAFHRL
TAF
KHRL 041735Z 0418/0518 36010KT P6SM SKC
     FM042100 06011KT P6SM SKC
     FM050000 09011KT P6SM SKC
     FM050300 13005KT P6SM SKC
     FM050900 20006KT P6SM SKC
     FM051500 23010KT P6SM SKC=



000
FTUS44 KBRO 041735
TAFMFE
TAF
KMFE 041735Z 0418/0518 01007KT P6SM SKC
     FM042100 04007KT P6SM SKC
     FM050000 09009KT P6SM SKC
     FM050300 12006KT P6SM SKC
     FM051500 19008KT P6SM SKC=



000
FTUS44 KBRO 041735
TAFBRO
TAF
KBRO 041735Z 0418/0518 01010KT P6SM SKC
     FM042100 05010KT P6SM SKC
     FM050300 11005KT P6SM SKC
     FM050600 15005KT P6SM SKC
     FM051500 23008KT P6SM SKC=



000
FTUS44 KBRO 041735
TAFMFE
TAF
KMFE 041735Z 0418/0518 01007KT P6SM SKC
     FM042100 04007KT P6SM SKC
     FM050000 09009KT P6SM SKC
     FM050300 12006KT P6SM SKC
     FM051500 19008KT P6SM SKC=



000
FTUS44 KBRO 041735
TAFHRL
TAF
KHRL 041735Z 0418/0518 36010KT P6SM SKC
     FM042100 06011KT P6SM SKC
     FM050000 09011KT P6SM SKC
     FM050300 13005KT P6SM SKC
     FM050900 20006KT P6SM SKC
     FM051500 23010KT P6SM SKC=



000
FTUS44 KBRO 041735
TAFBRO
TAF
KBRO 041735Z 0418/0518 01010KT P6SM SKC
     FM042100 05010KT P6SM SKC
     FM050300 11005KT P6SM SKC
     FM050600 15005KT P6SM SKC
     FM051500 23008KT P6SM SKC=



000
FTUS44 KBRO 041120
TAFBRO
TAF
KBRO 041120Z 0412/0512 32006KT P6SM SCT060 SCT080
     FM041900 03010G15KT P6SM SKC
     FM042300 08005KT P6SM SKC=



000
FTUS44 KBRO 041120
TAFHRL
TAF
KHRL 041120Z 0412/0512 34006KT P6SM FEW060 SCT150
     FM041900 03010G15KT P6SM SKC
     FM042300 09006KT P6SM SKC=



000
FTUS44 KBRO 041120
TAFMFE
TAF
KMFE 041120Z 0412/0512 34006KT P6SM FEW060 SCT150
     FM041700 03010G15KT P6SM SKC
     FM042300 08006KT P6SM SKC=



000
FTUS44 KBRO 041120
TAFMFE
TAF
KMFE 041120Z 0412/0512 34006KT P6SM FEW060 SCT150
     FM041700 03010G15KT P6SM SKC
     FM042300 08006KT P6SM SKC=



000
FTUS44 KBRO 041120
TAFHRL
TAF
KHRL 041120Z 0412/0512 34006KT P6SM FEW060 SCT150
     FM041900 03010G15KT P6SM SKC
     FM042300 09006KT P6SM SKC=



000
FTUS44 KBRO 041120
TAFBRO
TAF
KBRO 041120Z 0412/0512 32006KT P6SM SCT060 SCT080
     FM041900 03010G15KT P6SM SKC
     FM042300 08005KT P6SM SKC=



000
FTUS44 KBRO 040520
TAFHRL
TAF
KHRL 040520Z 0406/0506 36007KT P6SM OVC050
     FM041200 35008KT P6SM FEW050 SCT150
     FM041900 03010G15KT P6SM SKC
     FM042300 09006KT P6SM SKC=



000
FTUS44 KBRO 040520
TAFMFE
TAF
KMFE 040520Z 0406/0506 31005KT P6SM OVC045
     FM041100 36011KT P6SM FEW050 SCT150
     FM041700 03010G15KT P6SM SKC
     FM042300 08006KT P6SM SKC=



000
FTUS44 KBRO 040520
TAFBRO
TAF
KBRO 040520Z 0406/0506 36006KT P6SM OVC050
     FM041200 35008KT P6SM SCT050 SCT150
     FM041900 03010G15KT P6SM SKC
     FM042300 08005KT P6SM SKC=



000
FTUS44 KBRO 032326
TAFMFE
TAF
KMFE 032326Z 0400/0424 31005KT P6SM OVC045
     FM041100 36011KT P6SM FEW050 SCT150
     FM041700 03010G15KT P6SM SKC=



000
FTUS44 KBRO 032326
TAFBRO
TAF
KBRO 032326Z 0400/0424 36006KT P6SM OVC050
     FM041200 35008KT P6SM SCT050 SCT150
     FM041900 03010G15KT P6SM SKC=



000
FTUS44 KBRO 032326
TAFHRL
TAF
KHRL 032326Z 0400/0424 36007KT P6SM OVC050
     FM041200 35008KT P6SM FEW050 SCT150
     FM041900 03010G15KT P6SM SKC=



000
FTUS44 KBRO 032124 AAB
TAFBRO
TAF AMD
KBRO 032124Z 0321/0418 35007KT P6SM OVC025
     FM040600 35004KT P6SM BKN040
     FM041200 34006KT P6SM SCT050 BKN150
     FM041600 01011KT P6SM FEW050 SCT150=



000
FTUS44 KBRO 032115 AAA
TAFMFE
TAF AMD
KMFE 032115Z 0321/0418 34005KT P6SM OVC040
     FM041000 34005KT P6SM BKN050
     FM041600 36011KT P6SM FEW050 SCT150=



000
FTUS44 KBRO 032115 AAA
TAFMFE
TAF AMD
KMFE 032115Z 0321/0418 34005KT P6SM OVC040
     FM041000 34005KT P6SM BKN050
     FM041600 36011KT P6SM FEW050 SCT150=



000
FTUS44 KBRO 032113 AAA
TAFHRL
TAF AMD
KHRL 032113Z 0321/0418 35004KT P6SM FEW025 OVC040
     FM041200 34005KT P6SM BKN050
     FM041700 35011KT P6SM SCT150=



000
FTUS44 KBRO 032113 AAA
TAFHRL
TAF AMD
KHRL 032113Z 0321/0418 35004KT P6SM FEW025 OVC040
     FM041200 34005KT P6SM BKN050
     FM041700 35011KT P6SM SCT150=



000
FTUS44 KBRO 031744
TAFHRL
TAF
KHRL 031744Z 0318/0418 31005KT P6SM OVC027
     FM040300 01005KT P6SM BKN015
     FM040600 01005KT P6SM BKN025
     FM040900 34005KT P6SM BKN050
     FM041200 35006KT P6SM BKN150=



000
FTUS44 KBRO 031744
TAFMFE
TAF
KMFE 031744Z 0318/0418 34005KT P6SM OVC030
     FM040300 02006KT P6SM BKN040
     FM041200 35005KT P6SM BKN150=



000
FTUS44 KBRO 031744
TAFBRO
TAF
KBRO 031744Z 0318/0418 33008KT P6SM FEW019 OVC030
      TEMPO 0318/0322 BKN020
     FM040300 01005KT P6SM BKN015
     FM040600 33004KT P6SM BKN050
     FM041200 34006KT P6SM SCT040 BKN150=



000
FTUS44 KBRO 031459 AAA
TAFHRL
TAF AMD
KHRL 031459Z 0315/0412 35008KT P6SM OVC030
     FM031800 03010KT P6SM BKN035=



000
FTUS44 KBRO 031120
TAFBRO
TAF
KBRO 031120Z 0312/0412 35010KT P6SM OVC020
     FM031800 02010KT P6SM BKN035=



000
FTUS44 KBRO 031120
TAFHRL
TAF
KHRL 031120Z 0312/0412 35012KT P6SM OVC025
     FM031800 03010KT P6SM BKN035=



000
FTUS44 KBRO 031120
TAFMFE
TAF
KMFE 031120Z 0312/0412 35010KT P6SM OVC035
     FM040300 02006KT P6SM BKN040=



000
FTUS44 KBRO 030919 AAA
TAFBRO
TAF AMD
KBRO 030919Z 0309/0406 35009KT P6SM OVC020
     FM031800 03010KT P6SM BKN035=



    US Dept of Commerce
    National Oceanic and Atmospheric Administration
    National Weather Service
    1325 East West Highway
    Silver Spring, MD 20910
    Page Author: NWS Internet Services Team
Disclaimer
Information Quality
Credits
Glossary
Privacy Policy
Freedom of Information Act (FOIA)
About Us
Career Opportunities